RoSS Sea — WDE3122 — position and weather

sailwx.info

Track history (hours):
 
Tides and Currents Weather Stations Pressure Air Temp Water Temp Dewpoint Dewpoint Depression Visibility Wind Speed Wind Dir Waves Ship Positions

RoSS Sea

Owner: Kirby Inland Marine, LP, Houston, TX. More information available from US FCC via Universal Licensing System and Coast Guard Vessel Documentation Center.

Last reported at 2014-Nov-27 04:29 UTC. Time now 2014-Nov-27 05:34 UTC.
Position N 41°13' W 072°58'.

Length 30 m; draft 5 m.

Type: Tow > 200 m length. MMSI: 367334360.

Date/timePositionNaut miles runAvg speedWind from/ knotsBaromVisibWave heightAir tempDewpointWater temp
2014-Nov-27 04:29N 41°13' W 072°58'0 0.0
2014-Nov-27 00:34N 41°13' W 072°58'4 3.7
2014-Nov-26 23:33N 41°12' W 072°53'8 7.9
2014-Nov-26 22:33N 41°11' W 072°43'8 7.8
2014-Nov-26 21:33N 41°11' W 072°33'7 7.3
2014-Nov-26 20:33N 41°12' W 072°23'8 8.1
2014-Nov-26 19:33N 41°13' W 072°12'9 9.0
2014-Nov-26 18:33N 41°14' W 072°01'10 9.8
2014-Nov-26 17:33N 41°16' W 071°48'10 9.9
2014-Nov-26 16:33N 41°18' W 071°35'9 9.5
2014-Nov-26 15:33N 41°18' W 071°22'9 9.1
2014-Nov-26 14:33N 41°22' W 071°11'140 7.6
2014-Nov-25 20:12N 43°34' W 070°08'5 7.8
2014-Nov-25 19:33N 43°39' W 070°10'5 4.5
2014-Nov-25 18:27N 43°44' W 070°10'  
2014-Nov-23 01:07N 42°56' W 070°33'3 4.8
2014-Nov-23 00:33N 42°54' W 070°36'5 4.8
2014-Nov-22 23:33N 42°49' W 070°38'6 5.8
2014-Nov-22 22:33N 42°44' W 070°34'85 3.4
2014-Nov-21 21:28N 41°23' W 071°08'7 7.1
2014-Nov-21 20:33N 41°20' W 071°16'7 7.2
2014-Nov-21 19:33N 41°18' W 071°25'8 7.9
2014-Nov-21 18:33N 41°18' W 071°36'8 8.1
2014-Nov-21 17:33N 41°16' W 071°46'8 8.3
2014-Nov-21 16:33N 41°15' W 071°57'6 6.2
2014-Nov-21 15:33N 41°17' W 072°05'1 1.5
2014-Nov-21 14:33N 41°18' W 072°05'0 0.0
2014-Nov-21 13:33N 41°19' W 072°05'0 0.0
2014-Nov-21 12:33N 41°19' W 072°05'0 0.0
2014-Nov-21 11:33N 41°19' W 072°05'0 0.0
2014-Nov-21 10:33N 41°19' W 072°05'0 0.1
2014-Nov-21 09:33N 41°18' W 072°05'0 0.1
2014-Nov-21 08:33N 41°18' W 072°05'2 2.4
2014-Nov-21 07:33N 41°16' W 072°06'8 7.6
2014-Nov-21 06:33N 41°13' W 072°15'9 9.2
2014-Nov-21 05:33N 41°09' W 072°27'8 8.4
2014-Nov-21 04:33N 41°07' W 072°37'8 7.8
2014-Nov-21 03:33N 41°06' W 072°48'7 7.3
2014-Nov-21 02:32N 41°04' W 072°57'6 5.6
2014-Nov-21 01:32N 41°02' W 073°04'12 5.9
2014-Nov-20 23:33N 41°00' W 073°20'30 7.4
2014-Nov-20 19:26N 40°47' W 073°55'5 6.0
2014-Nov-20 18:33N 40°42' W 073°59'4 4.2
2014-Nov-20 17:33N 40°39' W 074°03'0 0.0
2014-Nov-20 16:31N 40°39' W 074°03'0 0.0
2014-Nov-20 15:31N 40°39' W 074°03'0 0.1
2014-Nov-20 14:31N 40°39' W 074°03'0 0.1
2014-Nov-20 13:31N 40°39' W 074°03'0 0.1
2014-Nov-20 12:31N 40°40' W 074°03'0 0.0
2014-Nov-20 11:31N 40°40' W 074°03'0 0.0
2014-Nov-20 10:31N 40°40' W 074°03'0 0.0
2014-Nov-20 09:31N 40°40' W 074°03'0 0.0
2014-Nov-20 08:31N 40°40' W 074°03'0 0.2
2014-Nov-20 07:31N 40°39' W 074°03'0 0.0
2014-Nov-20 06:31N 40°39' W 074°03'0 0.0
2014-Nov-20 05:31N 40°39' W 074°03'0 0.0
2014-Nov-20 04:31N 40°39' W 074°03'0 0.0
2014-Nov-20 03:31N 40°39' W 074°03'0 0.1
2014-Nov-20 02:28N 40°39' W 074°03'0 0.2
2014-Nov-20 01:31N 40°40' W 074°03'0 0.0
2014-Nov-20 00:31N 40°40' W 074°03'0 0.0
2014-Nov-19 23:31N 40°40' W 074°03'0 0.0
2014-Nov-19 22:31N 40°40' W 074°03'0 0.0
2014-Nov-19 21:28N 40°40' W 074°03'0 0.0
2014-Nov-19 20:31N 40°40' W 074°03'0 0.2
2014-Nov-19 19:31N 40°39' W 074°03'0 0.1
2014-Nov-19 18:31N 40°39' W 074°03'0 0.0
2014-Nov-19 17:31N 40°39' W 074°03'0 0.0
2014-Nov-19 16:31N 40°39' W 074°03'0 0.0
2014-Nov-19 15:31N 40°39' W 074°03'0 0.0
2014-Nov-19 14:31N 40°39' W 074°03'0 0.1
2014-Nov-19 13:31N 40°39' W 074°03'0 0.1
2014-Nov-19 12:31N 40°40' W 074°03'0 0.0
2014-Nov-19 11:31N 40°40' W 074°03'0 0.0
2014-Nov-19 10:25N 40°40' W 074°03'0 0.0
2014-Nov-19 09:31N 40°40' W 074°03'0 0.0
2014-Nov-19 08:31N 40°39' W 074°03'0 0.1
2014-Nov-19 07:31N 40°39' W 074°03'0 0.1
2014-Nov-19 06:31N 40°39' W 074°03'0 0.0
2014-Nov-19 05:31N 40°39' W 074°03'0 0.0
2014-Nov-19 04:31N 40°39' W 074°03'0 0.0
2014-Nov-19 03:28N 40°39' W 074°03'0 0.1
2014-Nov-19 02:28N 40°39' W 074°03'0 0.0
2014-Nov-19 01:31N 40°39' W 074°03'0 0.0
2014-Nov-19 00:31N 40°39' W 074°03'0 0.1
2014-Nov-18 23:31N 40°39' W 074°03'0 0.0
2014-Nov-18 22:31N 40°40' W 074°03'0 0.0
2014-Nov-18 21:31N 40°40' W 074°03'0 0.0
2014-Nov-18 20:31N 40°39' W 074°03'0 0.1
2014-Nov-18 19:31N 40°39' W 074°03'0 0.1
2014-Nov-18 18:31N 40°39' W 074°03'0 0.1
2014-Nov-18 17:28N 40°39' W 074°03'0 0.0
2014-Nov-18 16:31N 40°39' W 074°03'0 0.0
2014-Nov-18 15:31N 40°39' W 074°03'0 0.0
2014-Nov-18 14:31N 40°39' W 074°03'0 0.1
2014-Nov-18 13:31N 40°39' W 074°03'0 0.1
2014-Nov-18 12:31N 40°39' W 074°03'0 0.0
2014-Nov-18 11:31N 40°39' W 074°03'0 0.1
2014-Nov-18 10:31N 40°39' W 074°03'0 0.0
2014-Nov-18 09:28N 40°40' W 074°03'0 0.0
2014-Nov-18 08:31N 40°40' W 074°03'0 0.1
2014-Nov-18 07:31N 40°39' W 074°03'0 0.1
2014-Nov-18 06:25N 40°39' W 074°03'0 0.0
2014-Nov-18 05:31N 40°39' W 074°03'0 0.0
2014-Nov-18 04:31N 40°39' W 074°03'0 0.0
2014-Nov-18 03:31N 40°39' W 074°03'0 0.0
2014-Nov-18 02:31N 40°39' W 074°03'0 0.0
2014-Nov-18 01:31N 40°39' W 074°03'0 0.0
2014-Nov-18 00:34N 40°39' W 074°03'0 0.1
2014-Nov-17 23:34N 40°39' W 074°03'0 0.1
2014-Nov-17 22:33N 40°40' W 074°03'0 0.0
2014-Nov-17 21:34N 40°40' W 074°03'0 0.0
2014-Nov-17 20:34N 40°40' W 074°03'0 0.1
2014-Nov-17 19:33N 40°39' W 074°03'0 0.1
2014-Nov-17 18:34N 40°39' W 074°03'0 0.0
2014-Nov-17 17:33N 40°39' W 074°03'0 0.0
2014-Nov-17 16:34N 40°39' W 074°03'0 0.0
2014-Nov-17 15:34N 40°39' W 074°03'0 0.0
2014-Nov-17 14:33N 40°39' W 074°03'0 0.0
2014-Nov-17 13:33N 40°39' W 074°03'0 0.0
2014-Nov-17 12:33N 40°39' W 074°03'2 1.8
2014-Nov-17 11:33N 40°38' W 074°03'3 3.1
2014-Nov-17 10:34N 40°35' W 074°02'5 4.6
2014-Nov-17 09:32N 40°31' W 073°58'  
Track history (hours):
 
Tides and Currents Weather Stations Pressure Air Temp Water Temp Dewpoint Dewpoint Depression Visibility Wind Speed Wind Dir Waves Ship Positions

RoSS Sea

Owner: Kirby Inland Marine, LP, Houston, TX. More information available from US FCC via Universal Licensing System and Coast Guard Vessel Documentation Center.

Last reported at 2014-Nov-27 04:29 UTC. Time now 2014-Nov-27 05:34 UTC.
Position N 41°13' W 072°58'.

Length 30 m; draft 5 m.

Type: Tow > 200 m length. MMSI: 367334360.

Date/timePositionNaut miles runAvg speedWind from/ knotsBaromVisibWave heightAir tempDewpointWater temp
2014-Nov-27 04:29N 41°13' W 072°58'0 0.0
2014-Nov-27 00:34N 41°13' W 072°58'4 3.7
2014-Nov-26 23:33N 41°12' W 072°53'8 7.9
2014-Nov-26 22:33N 41°11' W 072°43'8 7.8
2014-Nov-26 21:33N 41°11' W 072°33'7 7.3
2014-Nov-26 20:33N 41°12' W 072°23'8 8.1
2014-Nov-26 19:33N 41°13' W 072°12'9 9.0
2014-Nov-26 18:33N 41°14' W 072°01'10 9.8
2014-Nov-26 17:33N 41°16' W 071°48'10 9.9
2014-Nov-26 16:33N 41°18' W 071°35'9 9.5
2014-Nov-26 15:33N 41°18' W 071°22'9 9.1
2014-Nov-26 14:33N 41°22' W 071°11'140 7.6
2014-Nov-25 20:12N 43°34' W 070°08'5 7.8
2014-Nov-25 19:33N 43°39' W 070°10'5 4.5
2014-Nov-25 18:27N 43°44' W 070°10'  
2014-Nov-23 01:07N 42°56' W 070°33'3 4.8
2014-Nov-23 00:33N 42°54' W 070°36'5 4.8
2014-Nov-22 23:33N 42°49' W 070°38'6 5.8
2014-Nov-22 22:33N 42°44' W 070°34'85 3.4
2014-Nov-21 21:28N 41°23' W 071°08'7 7.1
2014-Nov-21 20:33N 41°20' W 071°16'7 7.2
2014-Nov-21 19:33N 41°18' W 071°25'8 7.9
2014-Nov-21 18:33N 41°18' W 071°36'8 8.1
2014-Nov-21 17:33N 41°16' W 071°46'8 8.3
2014-Nov-21 16:33N 41°15' W 071°57'6 6.2
2014-Nov-21 15:33N 41°17' W 072°05'1 1.5
2014-Nov-21 14:33N 41°18' W 072°05'0 0.0
2014-Nov-21 13:33N 41°19' W 072°05'0 0.0
2014-Nov-21 12:33N 41°19' W 072°05'0 0.0
2014-Nov-21 11:33N 41°19' W 072°05'0 0.0
2014-Nov-21 10:33N 41°19' W 072°05'0 0.1
2014-Nov-21 09:33N 41°18' W 072°05'0 0.1
2014-Nov-21 08:33N 41°18' W 072°05'2 2.4
2014-Nov-21 07:33N 41°16' W 072°06'8 7.6
2014-Nov-21 06:33N 41°13' W 072°15'9 9.2
2014-Nov-21 05:33N 41°09' W 072°27'8 8.4
2014-Nov-21 04:33N 41°07' W 072°37'8 7.8
2014-Nov-21 03:33N 41°06' W 072°48'7 7.3
2014-Nov-21 02:32N 41°04' W 072°57'6 5.6
2014-Nov-21 01:32N 41°02' W 073°04'12 5.9
2014-Nov-20 23:33N 41°00' W 073°20'30 7.4
2014-Nov-20 19:26N 40°47' W 073°55'5 6.0
2014-Nov-20 18:33N 40°42' W 073°59'4 4.2
2014-Nov-20 17:33N 40°39' W 074°03'0 0.0
2014-Nov-20 16:31N 40°39' W 074°03'0 0.0
2014-Nov-20 15:31N 40°39' W 074°03'0 0.1
2014-Nov-20 14:31N 40°39' W 074°03'0 0.1
2014-Nov-20 13:31N 40°39' W 074°03'0 0.1
2014-Nov-20 12:31N 40°40' W 074°03'0 0.0
2014-Nov-20 11:31N 40°40' W 074°03'0 0.0
2014-Nov-20 10:31N 40°40' W 074°03'0 0.0
2014-Nov-20 09:31N 40°40' W 074°03'0 0.0
2014-Nov-20 08:31N 40°40' W 074°03'0 0.2
2014-Nov-20 07:31N 40°39' W 074°03'0 0.0
2014-Nov-20 06:31N 40°39' W 074°03'0 0.0
2014-Nov-20 05:31N 40°39' W 074°03'0 0.0
2014-Nov-20 04:31N 40°39' W 074°03'0 0.0
2014-Nov-20 03:31N 40°39' W 074°03'0 0.1
2014-Nov-20 02:28N 40°39' W 074°03'0 0.2
2014-Nov-20 01:31N 40°40' W 074°03'0 0.0
2014-Nov-20 00:31N 40°40' W 074°03'0 0.0
2014-Nov-19 23:31N 40°40' W 074°03'0 0.0
2014-Nov-19 22:31N 40°40' W 074°03'0 0.0
2014-Nov-19 21:28N 40°40' W 074°03'0 0.0
2014-Nov-19 20:31N 40°40' W 074°03'0 0.2
2014-Nov-19 19:31N 40°39' W 074°03'0 0.1
2014-Nov-19 18:31N 40°39' W 074°03'0 0.0
2014-Nov-19 17:31N 40°39' W 074°03'0 0.0
2014-Nov-19 16:31N 40°39' W 074°03'0 0.0
2014-Nov-19 15:31N 40°39' W 074°03'0 0.0
2014-Nov-19 14:31N 40°39' W 074°03'0 0.1
2014-Nov-19 13:31N 40°39' W 074°03'0 0.1
2014-Nov-19 12:31N 40°40' W 074°03'0 0.0
2014-Nov-19 11:31N 40°40' W 074°03'0 0.0
2014-Nov-19 10:25N 40°40' W 074°03'0 0.0
2014-Nov-19 09:31N 40°40' W 074°03'0 0.0
2014-Nov-19 08:31N 40°39' W 074°03'0 0.1
2014-Nov-19 07:31N 40°39' W 074°03'0 0.1
2014-Nov-19 06:31N 40°39' W 074°03'0 0.0
2014-Nov-19 05:31N 40°39' W 074°03'0 0.0
2014-Nov-19 04:31N 40°39' W 074°03'0 0.0
2014-Nov-19 03:28N 40°39' W 074°03'0 0.1
2014-Nov-19 02:28N 40°39' W 074°03'0 0.0
2014-Nov-19 01:31N 40°39' W 074°03'0 0.0
2014-Nov-19 00:31N 40°39' W 074°03'0 0.1
2014-Nov-18 23:31N 40°39' W 074°03'0 0.0
2014-Nov-18 22:31N 40°40' W 074°03'0 0.0
2014-Nov-18 21:31N 40°40' W 074°03'0 0.0
2014-Nov-18 20:31N 40°39' W 074°03'0 0.1
2014-Nov-18 19:31N 40°39' W 074°03'0 0.1
2014-Nov-18 18:31N 40°39' W 074°03'0 0.1
2014-Nov-18 17:28N 40°39' W 074°03'0 0.0
2014-Nov-18 16:31N 40°39' W 074°03'0 0.0
2014-Nov-18 15:31N 40°39' W 074°03'0 0.0
2014-Nov-18 14:31N 40°39' W 074°03'0 0.1
2014-Nov-18 13:31N 40°39' W 074°03'0 0.1
2014-Nov-18 12:31N 40°39' W 074°03'0 0.0
2014-Nov-18 11:31N 40°39' W 074°03'0 0.1
2014-Nov-18 10:31N 40°39' W 074°03'0 0.0
2014-Nov-18 09:28N 40°40' W 074°03'0 0.0
2014-Nov-18 08:31N 40°40' W 074°03'0 0.1
2014-Nov-18 07:31N 40°39' W 074°03'0 0.1
2014-Nov-18 06:25N 40°39' W 074°03'0 0.0
2014-Nov-18 05:31N 40°39' W 074°03'0 0.0
2014-Nov-18 04:31N 40°39' W 074°03'0 0.0
2014-Nov-18 03:31N 40°39' W 074°03'0 0.0
2014-Nov-18 02:31N 40°39' W 074°03'0 0.0
2014-Nov-18 01:31N 40°39' W 074°03'0 0.0
2014-Nov-18 00:34N 40°39' W 074°03'0 0.1
2014-Nov-17 23:34N 40°39' W 074°03'0 0.1
2014-Nov-17 22:33N 40°40' W 074°03'0 0.0
2014-Nov-17 21:34N 40°40' W 074°03'0 0.0
2014-Nov-17 20:34N 40°40' W 074°03'0 0.1
2014-Nov-17 19:33N 40°39' W 074°03'0 0.1
2014-Nov-17 18:34N 40°39' W 074°03'0 0.0
2014-Nov-17 17:33N 40°39' W 074°03'0 0.0
2014-Nov-17 16:34N 40°39' W 074°03'0 0.0
2014-Nov-17 15:34N 40°39' W 074°03'0 0.0
2014-Nov-17 14:33N 40°39' W 074°03'0 0.0
2014-Nov-17 13:33N 40°39' W 074°03'0 0.0
2014-Nov-17 12:33N 40°39' W 074°03'2 1.8
2014-Nov-17 11:33N 40°38' W 074°03'3 3.1
2014-Nov-17 10:34N 40°35' W 074°02'5 4.6
2014-Nov-17 09:32N 40°31' W 073°58'  

Dump ship's entire track history